createdAt,value
2022-08-09T00:00:04.161Z,23.0
2022-08-09T00:01:00.451Z,23.0
2022-08-09T00:02:00.450Z,22.9
2022-08-09T00:03:00.423Z,22.9
2022-08-09T00:04:10.287Z,22.9
2022-08-09T00:05:03.683Z,22.9
2022-08-09T00:06:19.117Z,23.0
2022-08-09T00:07:00.358Z,23.0
2022-08-09T00:08:01.469Z,23.1
2022-08-09T00:09:00.436Z,23.2
2022-08-09T00:10:00.414Z,23.3
2022-08-09T00:11:00.350Z,23.3
2022-08-09T00:12:04.475Z,23.2
2022-08-09T00:13:00.339Z,23.2
2022-08-09T00:14:00.313Z,23.2
2022-08-09T00:15:06.621Z,23.3
2022-08-09T00:16:02.414Z,23.3
2022-08-09T00:17:00.441Z,23.3
2022-08-09T00:18:04.337Z,23.3
2022-08-09T00:19:00.437Z,23.3
2022-08-09T00:20:00.318Z,23.3
2022-08-09T00:21:00.411Z,23.3
2022-08-09T00:22:00.425Z,23.3
2022-08-09T00:23:08.371Z,23.2
2022-08-09T00:24:00.336Z,23.2
2022-08-09T00:25:00.432Z,23.2
2022-08-09T00:26:00.330Z,23.3
2022-08-09T00:27:00.322Z,23.3
2022-08-09T00:28:00.327Z,23.3
2022-08-09T00:29:00.300Z,23.4
2022-08-09T00:30:16.430Z,23.5
2022-08-09T00:31:00.305Z,23.5
2022-08-09T00:32:01.166Z,23.5
2022-08-09T00:33:00.383Z,23.5
2022-08-09T00:34:00.300Z,23.5
2022-08-09T00:35:00.406Z,23.5
2022-08-09T00:36:00.310Z,23.5
2022-08-09T00:37:00.311Z,23.5
2022-08-09T00:38:00.314Z,23.4
2022-08-09T00:39:00.335Z,23.4
2022-08-09T00:40:12.838Z,23.3
2022-08-09T00:41:00.480Z,23.2
2022-08-09T00:44:09.845Z,23.1
2022-08-09T00:44:16.564Z,23.0
2022-08-09T00:44:19.482Z,22.9
2022-08-09T00:45:03.547Z,22.9
2022-08-09T00:46:00.354Z,22.8
2022-08-09T00:47:04.892Z,22.8
2022-08-09T00:48:00.399Z,22.8
2022-08-09T00:49:00.319Z,22.8
2022-08-09T00:50:00.301Z,22.8
2022-08-09T00:51:00.302Z,22.9
2022-08-09T00:52:02.057Z,22.9
2022-08-09T00:53:00.313Z,22.9
2022-08-09T00:54:00.417Z,22.9
2022-08-09T00:55:00.962Z,22.9
2022-08-09T00:56:04.512Z,22.9
2022-08-09T00:57:00.295Z,22.9
2022-08-09T00:58:00.395Z,22.8
2022-08-09T00:59:00.325Z,22.7
2022-08-09T01:00:02.833Z,22.6
2022-08-09T01:01:00.486Z,22.5
2022-08-09T01:02:00.332Z,22.4
2022-08-09T01:03:00.380Z,22.4
2022-08-09T01:04:00.420Z,22.3
2022-08-09T01:05:00.308Z,22.2
2022-08-09T01:06:03.837Z,22.1
2022-08-09T01:07:00.303Z,22.2
2022-08-09T01:08:01.447Z,22.3
2022-08-09T01:09:00.306Z,22.3
2022-08-09T01:10:00.369Z,22.3
2022-08-09T01:11:00.290Z,22.3
2022-08-09T01:12:00.307Z,22.3
2022-08-09T01:13:00.411Z,22.2
2022-08-09T01:14:01.657Z,22.1
2022-08-09T01:15:01.020Z,22.1
2022-08-09T01:16:00.365Z,22.1
2022-08-09T01:17:00.380Z,22.1
2022-08-09T01:18:00.320Z,22.2
2022-08-09T01:19:02.475Z,22.2
2022-08-09T01:20:02.360Z,22.2
2022-08-09T01:21:00.309Z,22.3
2022-08-09T01:22:00.474Z,22.3
2022-08-09T01:23:00.313Z,22.4
2022-08-09T01:24:03.596Z,22.4
2022-08-09T01:25:00.707Z,22.4
2022-08-09T01:26:00.308Z,22.4
2022-08-09T01:27:00.301Z,22.5
2022-08-09T01:28:00.658Z,22.6
2022-08-09T01:29:00.297Z,22.5
2022-08-09T01:30:00.515Z,22.5
2022-08-09T01:31:00.297Z,22.5
2022-08-09T01:32:31.430Z,22.4
2022-08-09T01:33:00.413Z,22.3
2022-08-09T01:34:00.407Z,22.3
2022-08-09T01:35:00.327Z,22.2
2022-08-09T01:36:00.297Z,22.2
2022-08-09T01:37:00.299Z,22.1
2022-08-09T01:38:09.316Z,22.1
2022-08-09T01:39:00.291Z,22.0
2022-08-09T01:40:00.434Z,22.0
2022-08-09T01:41:05.380Z,22.0
2022-08-09T01:42:04.007Z,21.9
2022-08-09T01:43:00.314Z,21.9
2022-08-09T01:44:00.335Z,21.9
2022-08-09T01:45:00.301Z,21.9
2022-08-09T01:46:00.404Z,21.9
2022-08-09T01:47:00.296Z,21.9
2022-08-09T01:48:00.396Z,21.8
2022-08-09T01:49:09.421Z,21.8
2022-08-09T01:50:00.318Z,21.9
2022-08-09T01:51:00.309Z,22.0
2022-08-09T01:52:07.346Z,22.0
2022-08-09T01:53:00.328Z,22.0
2022-08-09T01:54:00.411Z,21.9
2022-08-09T01:55:00.314Z,21.9
2022-08-09T01:56:00.304Z,21.9
2022-08-09T01:57:00.303Z,21.9
2022-08-09T01:58:00.342Z,21.9
2022-08-09T01:59:00.300Z,21.9
2022-08-09T02:00:08.834Z,21.9
2022-08-09T02:01:00.342Z,21.9
2022-08-09T02:02:01.055Z,22.0
2022-08-09T02:03:00.412Z,22.0
2022-08-09T02:04:00.327Z,22.1
2022-08-09T02:05:04.536Z,22.1
2022-08-09T02:06:06.199Z,22.2
2022-08-09T02:07:01.984Z,22.2
2022-08-09T02:08:39.590Z,22.2
2022-08-09T02:09:00.425Z,22.2
2022-08-09T02:10:01.239Z,22.2
2022-08-09T02:11:00.310Z,22.3
2022-08-09T02:12:00.403Z,22.3
2022-08-09T02:13:00.325Z,22.3
2022-08-09T02:14:06.409Z,22.3
2022-08-09T02:15:00.331Z,22.4
2022-08-09T02:16:00.305Z,22.4
2022-08-09T02:17:59.329Z,22.4
2022-08-09T02:18:10.353Z,22.4
2022-08-09T02:19:00.300Z,22.4
2022-08-09T02:20:02.097Z,22.4
2022-08-09T02:21:00.422Z,22.4
2022-08-09T02:22:00.320Z,22.4
2022-08-09T02:23:00.313Z,22.4
2022-08-09T02:24:00.431Z,22.4
2022-08-09T02:25:00.385Z,22.5
2022-08-09T02:26:00.306Z,22.5
2022-08-09T02:27:00.299Z,22.6
2022-08-09T02:28:03.711Z,22.6
2022-08-09T02:29:00.397Z,22.6
2022-08-09T02:30:01.662Z,22.6
2022-08-09T02:31:00.467Z,22.6
2022-08-09T02:32:00.320Z,22.6
2022-08-09T02:33:00.336Z,22.6
2022-08-09T02:34:06.937Z,22.5
2022-08-09T02:35:00.329Z,22.5
2022-08-09T02:36:03.431Z,22.4
2022-08-09T02:37:00.287Z,22.4
2022-08-09T02:38:00.346Z,22.4
2022-08-09T02:39:00.407Z,22.4
2022-08-09T02:40:01.546Z,22.5
2022-08-09T02:41:00.350Z,22.5
2022-08-09T02:42:00.296Z,22.4
2022-08-09T02:43:00.346Z,22.4
2022-08-09T02:44:00.309Z,22.4
2022-08-09T02:45:00.385Z,22.3
2022-08-09T02:46:00.299Z,22.3
2022-08-09T02:47:00.310Z,22.3
2022-08-09T02:48:00.294Z,22.2
2022-08-09T02:49:00.307Z,22.2
2022-08-09T02:50:02.107Z,22.1
2022-08-09T02:51:01.671Z,22.1
2022-08-09T02:52:00.320Z,22.1
2022-08-09T02:53:00.316Z,22.1
2022-08-09T02:54:01.572Z,22.1
2022-08-09T02:55:00.325Z,22.2
2022-08-09T02:56:01.017Z,22.3
2022-08-09T02:57:00.390Z,22.3
2022-08-09T02:58:32.723Z,22.3
2022-08-09T02:59:00.284Z,22.3
2022-08-09T03:00:25.900Z,22.3
2022-08-09T03:01:04.493Z,22.4
2022-08-09T03:02:06.499Z,22.4
2022-08-09T03:03:00.799Z,22.5
2022-08-09T03:04:18.011Z,22.5
2022-08-09T03:05:00.432Z,22.5
2022-08-09T03:06:00.406Z,22.6
2022-08-09T03:07:13.975Z,22.7
2022-08-09T03:08:00.371Z,22.7
2022-08-09T03:09:00.383Z,22.8
2022-08-09T03:10:00.505Z,22.9
2022-08-09T03:11:00.456Z,22.9
2022-08-09T03:12:06.012Z,23.0
2022-08-09T03:13:00.347Z,23.0
2022-08-09T03:14:01.789Z,23.1
2022-08-09T03:15:00.282Z,23.2
2022-08-09T03:16:06.825Z,23.2
2022-08-09T03:17:01.911Z,23.3
2022-08-09T03:18:00.477Z,23.3
2022-08-09T03:19:01.826Z,23.3
2022-08-09T03:20:05.360Z,23.3
2022-08-09T03:21:00.313Z,23.3
2022-08-09T03:22:00.311Z,23.3
2022-08-09T03:23:15.030Z,23.4
2022-08-09T03:24:04.406Z,23.5
2022-08-09T03:25:06.455Z,23.6
2022-08-09T03:26:03.630Z,23.7
2022-08-09T03:27:00.301Z,23.7
2022-08-09T03:28:00.312Z,23.8
2022-08-09T03:29:00.325Z,23.8
2022-08-09T03:30:01.332Z,23.9
2022-08-09T03:31:00.474Z,23.9
2022-08-09T03:32:00.927Z,23.9
2022-08-09T03:33:00.314Z,23.9
2022-08-09T03:34:00.306Z,24.0
2022-08-09T03:35:00.365Z,24.0
2022-08-09T03:36:12.614Z,24.1
2022-08-09T03:37:10.569Z,24.2
2022-08-09T03:38:00.300Z,24.2
2022-08-09T03:39:00.310Z,24.2
2022-08-09T03:40:00.368Z,24.2
2022-08-09T03:41:00.337Z,24.3
2022-08-09T03:42:06.774Z,24.3
2022-08-09T03:43:00.349Z,24.3
2022-08-09T03:44:07.944Z,24.4
2022-08-09T03:45:00.433Z,24.4
2022-08-09T03:46:05.254Z,24.4
2022-08-09T03:47:00.404Z,24.4
2022-08-09T03:48:00.313Z,24.5
2022-08-09T03:49:04.025Z,24.6
2022-08-09T03:50:00.314Z,24.6
2022-08-09T03:51:00.343Z,24.7
2022-08-09T03:52:03.746Z,24.8
2022-08-09T03:53:00.418Z,24.7
2022-08-09T03:54:00.383Z,24.6
2022-08-09T03:55:00.297Z,24.6
2022-08-09T03:56:00.431Z,24.6
2022-08-09T03:57:00.292Z,24.7
2022-08-09T03:58:09.712Z,24.8
2022-08-09T03:59:00.375Z,24.9
2022-08-09T04:00:00.477Z,24.8
2022-08-09T04:01:00.315Z,24.8
2022-08-09T04:02:00.397Z,24.8
2022-08-09T04:03:00.323Z,24.8
2022-08-09T04:04:03.023Z,24.7
2022-08-09T04:05:00.773Z,24.8
2022-08-09T04:06:00.317Z,24.8
2022-08-09T04:07:00.323Z,24.8
2022-08-09T04:08:00.391Z,24.8
2022-08-09T04:09:00.315Z,24.8
2022-08-09T04:10:00.297Z,24.9
2022-08-09T04:11:01.647Z,24.8
2022-08-09T04:12:00.390Z,24.8
2022-08-09T04:13:01.149Z,24.7
2022-08-09T04:14:53.917Z,24.6
2022-08-09T04:15:11.347Z,24.6
2022-08-09T04:16:18.111Z,24.5
2022-08-09T04:17:00.312Z,24.5
2022-08-09T04:18:00.296Z,24.4
2022-08-09T04:19:00.410Z,24.4
2022-08-09T04:20:02.644Z,24.5
2022-08-09T04:21:00.301Z,24.5
2022-08-09T04:22:00.535Z,24.5
2022-08-09T04:23:00.303Z,24.6
2022-08-09T04:24:00.357Z,24.7
2022-08-09T04:25:01.449Z,24.7
2022-08-09T04:26:00.300Z,24.7
2022-08-09T04:27:00.378Z,24.7
2022-08-09T04:28:03.605Z,24.7
2022-08-09T04:29:02.450Z,24.7
2022-08-09T04:30:00.304Z,24.8
2022-08-09T04:31:00.314Z,24.8
2022-08-09T04:32:00.318Z,24.7
2022-08-09T04:33:01.260Z,24.7
2022-08-09T04:34:00.505Z,24.8
2022-08-09T04:35:01.372Z,24.8
2022-08-09T04:36:00.301Z,24.9
2022-08-09T04:37:00.309Z,25.0
2022-08-09T04:38:03.624Z,25.1
2022-08-09T04:39:00.301Z,25.3
2022-08-09T04:40:00.384Z,25.3
2022-08-09T04:41:00.313Z,25.4
2022-08-09T04:42:02.745Z,25.4
2022-08-09T04:43:00.332Z,25.5
2022-08-09T04:44:06.397Z,25.6
2022-08-09T04:45:00.324Z,25.6
2022-08-09T04:46:00.328Z,25.7
2022-08-09T04:47:04.375Z,25.7
2022-08-09T04:48:04.052Z,25.8
2022-08-09T04:49:00.382Z,26.0
2022-08-09T04:50:00.294Z,26.2
2022-08-09T04:51:00.310Z,26.3
2022-08-09T04:52:00.294Z,26.5
2022-08-09T04:53:00.321Z,26.7
2022-08-09T04:54:00.400Z,26.7
2022-08-09T04:55:00.309Z,26.7
2022-08-09T04:56:00.317Z,26.9
2022-08-09T04:57:00.315Z,26.9
2022-08-09T04:58:01.768Z,27.0
2022-08-09T04:59:03.712Z,27.2
2022-08-09T05:00:00.343Z,27.6
2022-08-09T05:01:00.337Z,28.1
2022-08-09T05:02:02.923Z,27.9
2022-08-09T05:03:00.466Z,28.2
2022-08-09T05:04:00.497Z,28.2
2022-08-09T05:05:09.588Z,28.1
2022-08-09T05:06:06.621Z,28.0
2022-08-09T05:07:00.296Z,27.9
2022-08-09T05:08:00.311Z,27.9
2022-08-09T05:09:01.285Z,27.9
2022-08-09T05:10:02.026Z,28.0
2022-08-09T05:11:01.129Z,28.3
2022-08-09T05:12:00.390Z,28.4
2022-08-09T05:13:00.295Z,28.6
2022-08-09T05:14:00.289Z,28.7
2022-08-09T05:15:00.316Z,28.6
2022-08-09T05:16:00.305Z,28.8
2022-08-09T05:17:00.343Z,30.1
2022-08-09T05:18:39.482Z,29.8
2022-08-09T05:19:02.750Z,29.7
2022-08-09T05:20:00.372Z,29.3
2022-08-09T05:21:00.315Z,29.4
2022-08-09T05:22:00.321Z,29.8
2022-08-09T05:23:54.577Z,30.6
2022-08-09T05:24:04.105Z,30.0
2022-08-09T05:25:00.981Z,29.7
2022-08-09T05:26:00.332Z,30.2
2022-08-09T05:27:00.295Z,30.2
2022-08-09T05:28:00.308Z,29.7
2022-08-09T05:29:00.312Z,30.2
2022-08-09T05:30:00.324Z,30.0
2022-08-09T05:31:00.384Z,31.4
2022-08-09T05:32:00.324Z,32.1
2022-08-09T05:33:00.322Z,32.3
2022-08-09T05:34:00.399Z,33.3
2022-08-09T05:35:00.497Z,33.8
2022-08-09T05:36:00.305Z,34.1
2022-08-09T05:37:01.745Z,34.3
2022-08-09T05:38:00.347Z,34.1
2022-08-09T05:39:00.357Z,34.2
2022-08-09T05:40:00.478Z,33.3
2022-08-09T05:41:00.318Z,34.1
2022-08-09T05:42:02.850Z,33.7
2022-08-09T05:43:00.382Z,33.4
2022-08-09T05:44:00.312Z,33.8
2022-08-09T05:45:00.384Z,34.2
2022-08-09T05:46:00.309Z,34.4
2022-08-09T05:47:00.316Z,34.9
2022-08-09T05:48:01.249Z,35.0
2022-08-09T05:49:00.407Z,34.5
2022-08-09T05:50:34.967Z,34.8
2022-08-09T05:51:16.785Z,33.5
2022-08-09T05:52:00.323Z,33.2
2022-08-09T05:53:00.314Z,34.1
2022-08-09T05:54:00.328Z,34.0
2022-08-09T05:55:03.161Z,33.6
2022-08-09T05:56:01.532Z,34.0
2022-08-09T05:57:00.338Z,34.3
2022-08-09T05:58:00.316Z,34.5
2022-08-09T05:59:00.308Z,34.8
2022-08-09T06:00:00.327Z,35.0
2022-08-09T06:01:00.417Z,35.1
2022-08-09T06:02:00.304Z,35.1
2022-08-09T06:03:00.480Z,35.1
2022-08-09T06:04:00.360Z,35.2
2022-08-09T06:05:00.308Z,35.5
2022-08-09T06:06:05.871Z,35.5
2022-08-09T06:07:00.299Z,35.3
2022-08-09T06:08:05.498Z,35.3
2022-08-09T06:09:00.390Z,35.5
2022-08-09T06:10:02.758Z,35.7
2022-08-09T06:11:00.331Z,35.9
2022-08-09T06:12:00.452Z,35.9
2022-08-09T06:13:11.665Z,35.9
2022-08-09T06:14:00.310Z,35.9
2022-08-09T06:15:01.812Z,36.0
2022-08-09T06:16:00.323Z,36.0
2022-08-09T06:17:00.336Z,36.0
2022-08-09T06:18:00.435Z,36.1
2022-08-09T06:19:00.307Z,36.1
2022-08-09T06:20:00.317Z,36.1
2022-08-09T06:21:00.486Z,36.1
2022-08-09T06:22:00.343Z,35.9
2022-08-09T06:23:00.335Z,35.6
2022-08-09T06:24:02.546Z,35.4
2022-08-09T06:25:00.298Z,35.4
2022-08-09T06:26:00.317Z,35.6
2022-08-09T06:27:00.618Z,35.7
2022-08-09T06:28:00.310Z,35.5
2022-08-09T06:29:05.245Z,35.4
2022-08-09T06:30:08.918Z,35.4
2022-08-09T06:31:00.353Z,35.2
2022-08-09T06:32:08.940Z,34.9
2022-08-09T06:33:30.077Z,34.7
2022-08-09T06:34:00.320Z,34.7
2022-08-09T06:35:00.328Z,34.6
2022-08-09T06:36:00.332Z,34.4
2022-08-09T06:37:00.426Z,34.4
2022-08-09T06:38:05.781Z,34.7
2022-08-09T06:39:02.401Z,34.7
2022-08-09T06:40:02.590Z,34.7
2022-08-09T06:41:00.305Z,34.6
2022-08-09T06:42:09.396Z,34.8
2022-08-09T06:43:00.382Z,35.1
2022-08-09T06:44:00.315Z,35.5
2022-08-09T06:45:00.507Z,35.4
2022-08-09T06:46:06.707Z,34.9
2022-08-09T06:47:00.296Z,34.7
2022-08-09T06:48:00.597Z,34.5
2022-08-09T06:49:00.642Z,34.5
2022-08-09T06:50:14.575Z,34.6
2022-08-09T06:51:00.328Z,34.6
2022-08-09T06:52:00.332Z,34.7
2022-08-09T06:53:00.342Z,34.9
2022-08-09T06:54:00.983Z,34.9
2022-08-09T06:55:00.402Z,34.8
2022-08-09T06:56:00.378Z,34.7
2022-08-09T06:57:00.361Z,34.7
2022-08-09T06:58:02.622Z,34.7
2022-08-09T07:00:52.912Z,34.6
2022-08-09T07:00:55.692Z,34.7
2022-08-09T07:01:00.529Z,34.7
2022-08-09T07:02:04.481Z,34.5
2022-08-09T07:03:00.305Z,34.3
2022-08-09T07:04:03.748Z,34.4
2022-08-09T07:05:00.433Z,34.3
2022-08-09T07:06:03.851Z,34.4
2022-08-09T07:07:01.026Z,34.6
2022-08-09T07:08:01.791Z,34.9
2022-08-09T07:09:00.310Z,34.9
2022-08-09T07:10:17.926Z,35.1
2022-08-09T07:11:00.363Z,35.1
2022-08-09T07:12:00.302Z,35.3
2022-08-09T07:13:00.410Z,35.2
2022-08-09T07:14:05.530Z,34.9
2022-08-09T07:15:00.376Z,34.8
2022-08-09T07:16:41.708Z,34.7
2022-08-09T07:17:00.309Z,34.7
2022-08-09T07:18:02.305Z,34.5
2022-08-09T07:19:00.329Z,34.5
2022-08-09T07:20:00.451Z,34.4
2022-08-09T07:21:00.430Z,34.3
2022-08-09T07:22:00.302Z,34.5
2022-08-09T07:23:00.307Z,34.5
2022-08-09T07:24:00.333Z,34.5
2022-08-09T07:25:00.326Z,34.5
2022-08-09T07:26:02.673Z,34.4
2022-08-09T07:27:00.647Z,34.3
2022-08-09T07:28:00.309Z,34.5
2022-08-09T07:29:01.260Z,34.6
2022-08-09T07:30:00.380Z,34.6
2022-08-09T07:31:00.418Z,34.4
2022-08-09T07:32:00.383Z,34.3
2022-08-09T07:33:00.301Z,34.2
2022-08-09T07:34:00.304Z,34.2
2022-08-09T07:35:00.307Z,34.2
2022-08-09T07:36:00.401Z,34.1
2022-08-09T07:37:02.646Z,34.0
2022-08-09T07:38:00.495Z,33.9
2022-08-09T07:39:00.995Z,33.8
2022-08-09T07:40:00.448Z,33.7
2022-08-09T07:41:11.444Z,33.5
2022-08-09T07:42:00.412Z,33.4
2022-08-09T07:43:00.332Z,33.6
2022-08-09T07:44:00.324Z,33.7
2022-08-09T07:45:06.295Z,33.8
2022-08-09T07:46:03.016Z,33.9
2022-08-09T07:47:00.322Z,33.9
2022-08-09T07:48:04.107Z,33.7
2022-08-09T07:49:00.494Z,33.3
2022-08-09T07:50:07.811Z,33.1
2022-08-09T07:51:10.215Z,32.9
2022-08-09T07:52:04.614Z,32.9
2022-08-09T07:53:02.950Z,33.0
2022-08-09T07:54:07.037Z,33.0
2022-08-09T07:55:00.326Z,32.8
2022-08-09T07:56:02.751Z,32.9
2022-08-09T07:57:00.295Z,33.0
2022-08-09T07:58:00.443Z,33.2
2022-08-09T07:59:00.372Z,33.3
2022-08-09T08:00:03.441Z,33.4
2022-08-09T08:01:06.767Z,33.5
2022-08-09T08:02:00.410Z,33.5
2022-08-09T08:03:00.352Z,33.3
2022-08-09T08:04:00.509Z,33.2
2022-08-09T08:05:00.390Z,33.0
2022-08-09T08:06:00.335Z,32.9
2022-08-09T08:07:15.172Z,32.6
2022-08-09T08:09:01.275Z,32.2
2022-08-09T08:09:04.408Z,32.0
2022-08-09T08:10:08.100Z,32.2
2022-08-09T08:12:07.724Z,32.4
2022-08-09T08:12:09.896Z,32.5
2022-08-09T08:13:00.328Z,32.5
2022-08-09T08:14:00.313Z,32.6
2022-08-09T08:15:00.381Z,32.8
2022-08-09T08:16:00.316Z,33.0
2022-08-09T08:17:07.831Z,33.2
2022-08-09T08:18:00.319Z,33.1
2022-08-09T08:19:02.836Z,33.0
2022-08-09T08:20:00.332Z,33.1
2022-08-09T08:21:00.404Z,33.1
2022-08-09T08:22:00.385Z,33.1
2022-08-09T08:23:03.428Z,33.2
2022-08-09T08:24:01.042Z,33.0
2022-08-09T08:25:00.313Z,33.1
2022-08-09T08:26:08.236Z,33.4
2022-08-09T08:27:00.413Z,33.5
2022-08-09T08:28:00.301Z,33.8
2022-08-09T08:29:00.298Z,33.9
2022-08-09T08:30:04.328Z,33.6
2022-08-09T08:31:04.907Z,33.4
2022-08-09T08:32:03.966Z,33.1
2022-08-09T08:33:00.514Z,33.2
2022-08-09T08:34:00.312Z,33.2
2022-08-09T08:35:00.299Z,33.0
2022-08-09T08:36:03.569Z,32.8
2022-08-09T08:37:01.401Z,32.6
2022-08-09T08:38:04.705Z,32.7
2022-08-09T08:39:00.539Z,32.9
2022-08-09T08:40:00.456Z,32.9
2022-08-09T08:41:01.757Z,32.8
2022-08-09T08:42:00.318Z,32.9
2022-08-09T08:43:00.323Z,33.2
2022-08-09T08:44:02.655Z,33.4
2022-08-09T08:45:00.311Z,33.3
2022-08-09T08:46:32.565Z,33.3
2022-08-09T08:47:04.446Z,33.2
2022-08-09T08:48:00.335Z,33.3
2022-08-09T08:49:00.301Z,33.4
2022-08-09T08:50:02.731Z,33.3
2022-08-09T08:51:00.326Z,33.5
2022-08-09T08:52:04.020Z,33.4
2022-08-09T08:53:00.878Z,33.4
2022-08-09T08:54:03.455Z,33.5
2022-08-09T08:55:01.245Z,33.5
2022-08-09T08:56:00.514Z,33.4
2022-08-09T08:57:00.360Z,33.2
2022-08-09T08:58:00.401Z,33.2
2022-08-09T08:59:00.445Z,33.3
2022-08-09T09:00:00.378Z,33.6
2022-08-09T09:01:00.626Z,33.7
2022-08-09T09:02:00.331Z,33.6
2022-08-09T09:03:08.347Z,33.7
2022-08-09T09:04:00.369Z,33.6
2022-08-09T09:05:02.969Z,33.5
2022-08-09T09:06:04.571Z,33.6
2022-08-09T09:07:00.653Z,33.5
2022-08-09T09:08:00.294Z,33.4
2022-08-09T09:09:00.322Z,33.2
2022-08-09T09:10:04.771Z,33.1
2022-08-09T09:11:00.406Z,33.1
2022-08-09T09:12:00.328Z,32.9
2022-08-09T09:13:00.427Z,32.8
2022-08-09T09:14:00.313Z,32.5
2022-08-09T09:15:00.313Z,32.5
2022-08-09T09:16:00.286Z,32.3
2022-08-09T09:17:00.404Z,32.2
2022-08-09T09:18:00.324Z,32.2
2022-08-09T09:19:21.609Z,32.4
2022-08-09T09:20:01.107Z,32.5
2022-08-09T09:21:00.335Z,32.7
2022-08-09T09:22:00.713Z,32.6
2022-08-09T09:23:01.895Z,32.4
2022-08-09T09:24:04.703Z,32.4
2022-08-09T09:26:01.158Z,32.3
2022-08-09T09:26:12.018Z,32.3
2022-08-09T09:27:00.329Z,32.3
2022-08-09T09:28:04.300Z,32.5
2022-08-09T09:29:03.472Z,32.6
2022-08-09T09:30:11.436Z,32.7
2022-08-09T09:31:00.548Z,32.7
2022-08-09T09:32:15.143Z,32.7
2022-08-09T09:33:00.394Z,32.7
2022-08-09T09:34:00.297Z,32.7
2022-08-09T09:35:00.411Z,32.8
2022-08-09T09:36:01.820Z,32.8
2022-08-09T09:37:00.339Z,32.8
2022-08-09T09:38:00.487Z,32.8
2022-08-09T09:39:00.432Z,32.8
2022-08-09T09:40:00.729Z,32.7
2022-08-09T09:41:00.524Z,32.8
2022-08-09T09:42:00.474Z,33.0
2022-08-09T09:43:00.410Z,33.0
2022-08-09T09:44:11.576Z,32.9
2022-08-09T09:45:00.491Z,33.0
2022-08-09T09:47:00.459Z,32.9
2022-08-09T09:48:00.361Z,32.9
2022-08-09T09:49:00.296Z,32.9
2022-08-09T09:50:14.110Z,32.8
2022-08-09T09:51:00.282Z,32.9
2022-08-09T09:52:00.423Z,32.9
2022-08-09T09:53:00.588Z,32.9
2022-08-09T09:54:01.663Z,33.0
2022-08-09T09:55:00.300Z,33.1
2022-08-09T09:56:04.166Z,33.2
2022-08-09T09:58:02.411Z,33.3
2022-08-09T09:58:15.619Z,33.1
2022-08-09T09:59:00.317Z,33.0
2022-08-09T10:00:00.273Z,33.1
2022-08-09T10:01:00.327Z,33.2
2022-08-09T10:02:00.366Z,33.2
2022-08-09T10:03:00.423Z,33.2
2022-08-09T10:04:03.258Z,33.0
2022-08-09T10:05:00.314Z,33.0
2022-08-09T10:06:01.387Z,33.1
2022-08-09T10:07:03.670Z,33.2
2022-08-09T10:08:11.119Z,33.3
2022-08-09T10:09:00.396Z,33.4
2022-08-09T10:10:03.230Z,33.5
2022-08-09T10:11:06.909Z,33.5
2022-08-09T10:12:14.376Z,33.6
2022-08-09T10:13:00.337Z,33.7
2022-08-09T10:14:00.392Z,33.7
2022-08-09T10:15:00.305Z,33.7
2022-08-09T10:16:54.485Z,33.6
2022-08-09T10:17:11.265Z,33.4
2022-08-09T10:18:00.288Z,33.3
2022-08-09T10:19:00.311Z,33.2
2022-08-09T10:20:00.677Z,33.2
2022-08-09T10:21:00.338Z,33.1
2022-08-09T10:22:00.424Z,33.1
2022-08-09T10:23:00.835Z,33.2
2022-08-09T10:24:00.318Z,33.3
2022-08-09T10:25:11.031Z,33.4
2022-08-09T10:26:04.865Z,33.5
2022-08-09T10:27:00.308Z,33.5
2022-08-09T10:28:00.355Z,33.6
2022-08-09T10:29:32.781Z,33.6
2022-08-09T10:30:49.490Z,33.6
2022-08-09T10:32:28.594Z,33.7
2022-08-09T10:33:00.305Z,33.7
2022-08-09T10:34:11.399Z,33.6
2022-08-09T10:35:00.307Z,33.5
2022-08-09T10:36:01.153Z,33.4
2022-08-09T10:37:00.423Z,33.6
2022-08-09T10:38:00.364Z,33.7
2022-08-09T10:39:00.594Z,33.7
2022-08-09T10:40:00.376Z,33.4
2022-08-09T10:41:00.430Z,33.2
2022-08-09T10:42:00.300Z,33.2
2022-08-09T10:43:00.516Z,33.3
2022-08-09T10:44:01.916Z,33.3
2022-08-09T10:45:00.310Z,33.4
2022-08-09T10:46:00.400Z,33.5
2022-08-09T10:47:01.065Z,33.6
2022-08-09T10:48:16.812Z,33.6
2022-08-09T10:49:00.296Z,33.7
2022-08-09T10:50:00.376Z,33.7
2022-08-09T10:51:00.325Z,33.7
2022-08-09T10:52:00.311Z,33.7
2022-08-09T10:53:00.351Z,33.7
2022-08-09T10:54:04.639Z,33.8
2022-08-09T10:55:00.397Z,33.9
2022-08-09T10:56:00.497Z,33.9
2022-08-09T10:57:00.459Z,33.9
2022-08-09T10:58:00.694Z,33.9
2022-08-09T10:59:00.309Z,33.8
2022-08-09T11:00:01.842Z,33.8
2022-08-09T11:03:05.636Z,33.8
2022-08-09T11:03:14.130Z,33.9
2022-08-09T11:03:15.302Z,33.9
2022-08-09T11:04:04.125Z,33.9
2022-08-09T11:05:00.370Z,33.9
2022-08-09T11:06:01.016Z,34.0
2022-08-09T11:07:01.177Z,34.0
2022-08-09T11:08:00.310Z,34.0
2022-08-09T11:09:08.643Z,34.1
2022-08-09T11:10:00.294Z,34.1
2022-08-09T11:11:08.460Z,34.0
2022-08-09T11:12:00.373Z,33.9
2022-08-09T11:13:00.461Z,34.0
2022-08-09T11:14:00.336Z,34.0
2022-08-09T11:15:00.311Z,34.0
2022-08-09T11:16:04.816Z,34.1
2022-08-09T11:17:00.349Z,34.1
2022-08-09T11:18:03.911Z,34.2
2022-08-09T11:19:00.428Z,34.2
2022-08-09T11:20:11.572Z,34.4
2022-08-09T11:21:00.377Z,34.4
2022-08-09T11:22:16.558Z,34.4
2022-08-09T11:23:00.365Z,34.5
2022-08-09T11:24:00.311Z,34.4
2022-08-09T11:25:00.464Z,34.3
2022-08-09T11:26:00.495Z,34.4
2022-08-09T11:27:00.460Z,34.5
2022-08-09T11:28:07.954Z,34.5
2022-08-09T11:29:00.340Z,34.4
2022-08-09T11:30:04.169Z,34.3
2022-08-09T11:31:00.302Z,34.2
2022-08-09T11:32:00.414Z,34.2
2022-08-09T11:33:00.278Z,34.2
2022-08-09T11:34:00.301Z,34.2
2022-08-09T11:35:00.326Z,34.4
2022-08-09T11:36:00.418Z,34.4
2022-08-09T11:37:00.297Z,34.3
2022-08-09T11:38:00.367Z,34.2
2022-08-09T11:39:00.287Z,34.2
2022-08-09T11:40:00.425Z,34.3
2022-08-09T11:41:00.320Z,34.3
2022-08-09T11:42:00.398Z,34.2
2022-08-09T11:43:00.297Z,34.0
2022-08-09T11:44:00.303Z,33.9
2022-08-09T11:45:00.324Z,34.0
2022-08-09T11:46:00.312Z,34.1
2022-08-09T11:47:00.298Z,34.2
2022-08-09T11:48:08.185Z,34.3
2022-08-09T11:49:00.353Z,34.4
2022-08-09T11:50:55.202Z,34.4
2022-08-09T11:52:48.660Z,34.4
2022-08-09T11:53:03.269Z,34.5
2022-08-09T11:53:59.604Z,34.5
2022-08-09T11:54:04.280Z,34.5
2022-08-09T11:55:00.386Z,34.4
2022-08-09T11:56:02.627Z,34.4
2022-08-09T11:57:00.304Z,34.4
2022-08-09T11:58:02.313Z,34.4
2022-08-09T11:59:00.400Z,34.4
2022-08-09T12:00:00.298Z,34.5
2022-08-09T12:01:00.309Z,34.6
2022-08-09T12:02:17.807Z,34.5
2022-08-09T12:03:00.344Z,34.6
2022-08-09T12:04:00.471Z,34.6
2022-08-09T12:05:00.441Z,34.5
2022-08-09T12:06:00.328Z,34.5
2022-08-09T12:07:00.323Z,34.6
2022-08-09T12:08:00.297Z,34.7
2022-08-09T12:09:00.375Z,34.6
2022-08-09T12:10:00.408Z,34.5
2022-08-09T12:11:00.579Z,34.6
2022-08-09T12:12:03.175Z,34.7
2022-08-09T12:13:00.413Z,34.8
2022-08-09T12:14:09.658Z,34.5
2022-08-09T12:15:07.675Z,34.1
2022-08-09T12:16:00.426Z,33.8
2022-08-09T12:17:00.309Z,33.6
2022-08-09T12:18:00.285Z,33.4
2022-08-09T12:19:00.329Z,33.3
2022-08-09T12:20:00.335Z,33.3
2022-08-09T12:21:02.713Z,33.1
2022-08-09T12:22:00.399Z,32.9
2022-08-09T12:23:00.370Z,32.8
2022-08-09T12:24:09.046Z,33.0
2022-08-09T12:25:00.419Z,33.3
2022-08-09T12:26:00.428Z,33.4
2022-08-09T12:28:58.427Z,33.5
2022-08-09T12:29:11.996Z,33.5
2022-08-09T12:29:29.981Z,33.6
2022-08-09T12:30:35.500Z,33.8
2022-08-09T12:31:00.311Z,33.8
2022-08-09T12:32:02.906Z,33.9
2022-08-09T12:33:00.314Z,33.9
2022-08-09T12:34:01.418Z,33.9
2022-08-09T12:35:03.162Z,34.0
2022-08-09T12:36:00.398Z,34.0
2022-08-09T12:37:09.830Z,34.0
2022-08-09T12:38:00.408Z,34.0
2022-08-09T12:39:00.304Z,34.1
2022-08-09T12:40:00.312Z,34.1
2022-08-09T12:41:00.414Z,34.1
2022-08-09T12:42:00.312Z,34.2
2022-08-09T12:43:00.316Z,34.2
2022-08-09T12:44:06.802Z,34.2
2022-08-09T12:45:00.422Z,34.2
2022-08-09T12:46:00.795Z,34.2
2022-08-09T12:47:00.319Z,34.2
2022-08-09T12:48:00.291Z,34.2
2022-08-09T12:49:00.307Z,34.2
2022-08-09T12:50:00.376Z,34.2
2022-08-09T12:51:03.690Z,34.1
2022-08-09T12:52:03.035Z,34.0
2022-08-09T12:53:08.812Z,34.0
2022-08-09T12:54:00.624Z,34.0
2022-08-09T12:56:12.964Z,34.0
2022-08-09T12:56:14.986Z,34.1
2022-08-09T12:57:00.289Z,34.1
2022-08-09T12:58:00.310Z,34.1
2022-08-09T12:59:00.385Z,34.1
2022-08-09T13:00:03.754Z,34.1
2022-08-09T13:01:00.355Z,34.0
2022-08-09T13:02:00.350Z,33.9
2022-08-09T13:03:00.307Z,33.9
2022-08-09T13:04:00.395Z,33.8
2022-08-09T13:05:00.333Z,33.8
2022-08-09T13:06:11.465Z,33.8
2022-08-09T13:07:00.356Z,33.8
2022-08-09T13:08:00.302Z,33.8
2022-08-09T13:09:01.044Z,33.8
2022-08-09T13:10:01.251Z,33.7
2022-08-09T13:11:00.335Z,33.7
2022-08-09T13:12:02.058Z,33.8
2022-08-09T13:13:10.172Z,33.8
2022-08-09T13:14:38.607Z,33.8
2022-08-09T13:15:00.296Z,33.7
2022-08-09T13:16:00.307Z,33.7
2022-08-09T13:17:01.045Z,33.7
2022-08-09T13:18:05.363Z,33.6
2022-08-09T13:19:00.473Z,33.5
2022-08-09T13:20:10.183Z,33.5